createdAt,value
2023-05-19T00:00:31.964Z,101196.81
2023-05-19T00:03:02.172Z,101168.47
2023-05-19T00:05:35.387Z,101166.09
2023-05-19T00:08:11.409Z,101176.72
2023-05-19T00:10:41.890Z,101167.81
2023-05-19T00:13:12.481Z,101177.97
2023-05-19T00:15:42.870Z,101189.00
2023-05-19T00:18:15.073Z,101204.91
2023-05-19T00:20:45.404Z,101209.97
2023-05-19T00:23:15.817Z,101217.19
2023-05-19T00:25:45.737Z,101222.75
2023-05-19T00:28:16.376Z,101224.91
2023-05-19T00:30:46.512Z,101225.31
2023-05-19T00:33:17.123Z,101217.28
2023-05-19T00:35:47.386Z,101208.31
2023-05-19T00:38:17.868Z,101203.00
2023-05-19T00:40:50.951Z,101200.09
2023-05-19T00:43:21.484Z,101206.53
2023-05-19T00:45:52.060Z,101204.31
2023-05-19T00:48:23.019Z,101195.41
2023-05-19T00:51:05.249Z,101201.91
2023-05-19T00:53:37.013Z,101201.91
2023-05-19T00:56:07.239Z,101200.91
2023-05-19T00:58:38.358Z,101206.22
2023-05-19T01:01:15.544Z,101209.78
2023-05-19T01:03:46.414Z,101213.84
2023-05-19T01:06:20.441Z,101209.44
2023-05-19T01:08:59.303Z,101213.25
2023-05-19T01:11:32.010Z,101195.66
2023-05-19T01:14:02.151Z,101198.06
2023-05-19T01:17:06.569Z,101203.84
2023-05-19T01:19:51.915Z,101205.00
2023-05-19T01:22:50.816Z,101206.06
2023-05-19T01:26:02.029Z,101203.03
2023-05-19T01:28:54.826Z,101199.22
2023-05-19T01:31:29.866Z,101201.25
2023-05-19T01:34:01.476Z,101213.88
2023-05-19T01:36:33.301Z,101210.34
2023-05-19T01:39:04.472Z,101216.25
2023-05-19T01:41:38.518Z,101209.22
2023-05-19T01:44:12.293Z,101215.84
2023-05-19T01:46:46.101Z,101209.53
2023-05-19T01:49:16.773Z,101209.44
2023-05-19T01:51:50.577Z,101216.38
2023-05-19T01:54:21.176Z,101218.28
2023-05-19T01:57:05.824Z,101208.94
2023-05-19T01:59:45.565Z,101210.38
2023-05-19T02:02:57.298Z,101223.06
2023-05-19T02:06:00.460Z,101220.69
2023-05-19T02:08:52.133Z,101216.44
2023-05-19T02:11:52.715Z,101219.88
2023-05-19T02:14:32.563Z,101221.53
2023-05-19T02:17:03.737Z,101223.72
2023-05-19T02:19:37.626Z,101217.69
2023-05-19T02:22:08.731Z,101220.34
2023-05-19T02:24:38.918Z,101222.25
2023-05-19T02:27:09.312Z,101214.09
2023-05-19T02:29:39.257Z,101210.97
2023-05-19T02:32:10.108Z,101217.53
2023-05-19T02:34:40.152Z,101211.72
2023-05-19T02:37:10.512Z,101213.22
2023-05-19T02:39:41.462Z,101214.66
2023-05-19T02:42:12.009Z,101218.16
2023-05-19T02:44:42.355Z,101220.31
2023-05-19T02:47:12.438Z,101212.88
2023-05-19T02:49:44.229Z,101216.47
2023-05-19T02:52:14.274Z,101217.75
2023-05-19T02:54:44.448Z,101211.34
2023-05-19T02:57:14.797Z,101203.38
2023-05-19T02:59:44.880Z,101207.03
2023-05-19T03:02:15.276Z,101210.81
2023-05-19T03:04:45.127Z,101207.66
2023-05-19T03:07:16.756Z,101204.91
2023-05-19T03:09:46.736Z,101198.84
2023-05-19T03:12:17.186Z,101203.97
2023-05-19T03:14:47.488Z,101210.03
2023-05-19T03:17:17.915Z,101204.34
2023-05-19T03:19:47.997Z,101206.06
2023-05-19T03:22:19.859Z,101202.38
2023-05-19T03:24:52.202Z,101204.78
2023-05-19T03:27:23.538Z,101205.69
2023-05-19T03:29:54.990Z,101209.56
2023-05-19T03:32:26.855Z,101203.69
2023-05-19T03:34:56.898Z,101205.94
2023-05-19T03:37:28.184Z,101196.75
2023-05-19T03:39:58.687Z,101204.56
2023-05-19T03:42:29.177Z,101200.06
2023-05-19T03:44:59.283Z,101197.38
2023-05-19T03:47:29.797Z,101206.31
2023-05-19T03:50:25.818Z,101207.34
2023-05-19T03:53:02.852Z,101192.53
2023-05-19T03:55:41.108Z,101190.75
2023-05-19T03:58:11.901Z,101187.66
2023-05-19T04:00:42.687Z,101190.56
2023-05-19T04:03:13.305Z,101191.84
2023-05-19T04:05:43.445Z,101189.22
2023-05-19T04:08:14.183Z,101187.00
2023-05-19T04:10:45.375Z,101190.44
2023-05-19T04:13:17.123Z,101186.25
2023-05-19T04:15:47.606Z,101182.13
2023-05-19T04:18:17.580Z,101178.47
2023-05-19T04:20:47.946Z,101180.72
2023-05-19T04:23:18.062Z,101181.91
2023-05-19T04:25:49.929Z,101175.44
2023-05-19T04:28:20.006Z,101172.75
2023-05-19T04:30:51.916Z,101172.22
2023-05-19T04:33:22.653Z,101172.69
2023-05-19T04:35:53.127Z,101166.47
2023-05-19T04:38:23.258Z,101167.44
2023-05-19T04:40:54.213Z,101167.66
2023-05-19T04:43:24.230Z,101168.63
2023-05-19T04:45:54.855Z,101166.53
2023-05-19T04:48:25.352Z,101152.09
2023-05-19T04:50:55.838Z,101144.50
2023-05-19T04:53:26.863Z,101149.66
2023-05-19T04:56:02.072Z,101150.00
2023-05-19T04:58:34.445Z,101149.88
2023-05-19T05:01:05.200Z,101142.41
2023-05-19T05:03:35.778Z,101150.22
2023-05-19T05:06:06.457Z,101146.78
2023-05-19T05:08:36.682Z,101145.81
2023-05-19T05:11:07.744Z,101148.81
2023-05-19T05:13:38.290Z,101142.56
2023-05-19T05:16:09.590Z,101134.69
2023-05-19T05:18:41.164Z,101133.69
2023-05-19T05:21:13.851Z,101126.16
2023-05-19T05:23:44.343Z,101133.31
2023-05-19T05:26:25.682Z,101127.13
2023-05-19T05:28:58.325Z,101128.47
2023-05-19T05:31:30.843Z,101126.00
2023-05-19T05:34:01.809Z,101126.81
2023-05-19T05:36:36.133Z,101128.09
2023-05-19T05:39:06.810Z,101122.81
2023-05-19T05:41:38.307Z,101115.06
2023-05-19T05:44:14.235Z,101118.91
2023-05-19T05:46:47.236Z,101104.38
2023-05-19T05:49:17.607Z,101112.25
2023-05-19T05:52:05.014Z,101112.31
2023-05-19T05:54:41.277Z,101105.81
2023-05-19T05:57:12.541Z,101099.91
2023-05-19T05:59:43.260Z,101108.00
2023-05-19T06:02:14.502Z,101095.38
2023-05-19T06:04:45.233Z,101094.94
2023-05-19T06:07:15.664Z,101103.91
2023-05-19T06:09:47.590Z,101091.94
2023-05-19T06:12:18.393Z,101088.06
2023-05-19T06:14:56.182Z,101086.69
2023-05-19T06:17:45.378Z,101091.59
2023-05-19T06:20:15.981Z,101090.34
2023-05-19T06:22:46.716Z,101104.56
2023-05-19T06:25:19.211Z,101095.31
2023-05-19T06:27:50.205Z,101095.38
2023-05-19T06:30:20.221Z,101099.09
2023-05-19T06:33:10.657Z,101098.06
2023-05-19T06:35:40.797Z,101101.53
2023-05-19T06:38:11.297Z,101093.75
2023-05-19T06:40:41.918Z,101100.91
2023-05-19T06:43:12.521Z,101094.97
2023-05-19T06:46:05.474Z,101097.38
2023-05-19T06:48:36.569Z,101089.81
2023-05-19T06:51:07.028Z,101088.94
2023-05-19T06:53:37.773Z,101084.00
2023-05-19T06:56:11.223Z,101080.16
2023-05-19T06:58:42.722Z,101086.22
2023-05-19T07:01:13.765Z,101079.97
2023-05-19T07:03:49.259Z,101081.25
2023-05-19T07:06:19.323Z,101080.78
2023-05-19T07:08:49.696Z,101084.72
2023-05-19T07:11:21.367Z,101081.63
2023-05-19T07:13:52.654Z,101085.38
2023-05-19T07:16:28.608Z,101089.63
2023-05-19T07:18:59.135Z,101082.59
2023-05-19T07:21:29.164Z,101087.25
2023-05-19T07:23:59.776Z,101088.97
2023-05-19T07:26:31.306Z,101084.97
2023-05-19T07:29:01.927Z,101091.09
2023-05-19T07:31:32.320Z,101091.31
2023-05-19T07:34:02.762Z,101096.03
2023-05-19T07:36:32.889Z,101086.75
2023-05-19T07:39:03.405Z,101089.03
2023-05-19T07:41:34.361Z,101090.38
2023-05-19T07:44:08.726Z,101099.00
2023-05-19T07:46:39.270Z,101104.00
2023-05-19T07:49:09.731Z,101105.00
2023-05-19T07:51:39.736Z,101103.66
2023-05-19T07:54:10.130Z,101100.25
2023-05-19T07:56:40.128Z,101102.34
2023-05-19T07:59:10.753Z,101089.84
2023-05-19T08:01:40.805Z,101093.16
2023-05-19T08:04:13.751Z,101097.41
2023-05-19T08:06:45.475Z,101102.34
2023-05-19T08:09:15.809Z,101095.63
2023-05-19T08:11:46.070Z,101098.50
2023-05-19T08:14:16.429Z,101106.59
2023-05-19T08:16:47.519Z,101099.25
2023-05-19T08:19:17.947Z,101100.13
2023-05-19T08:21:49.478Z,101102.66
2023-05-19T08:24:19.868Z,101095.25
2023-05-19T08:26:49.817Z,101108.25
2023-05-19T08:29:22.692Z,101104.25
2023-05-19T08:31:54.214Z,101099.00
2023-05-19T08:34:27.027Z,101097.44
2023-05-19T08:37:01.803Z,101107.66
2023-05-19T08:39:34.321Z,101102.41
2023-05-19T08:42:04.567Z,101108.19
2023-05-19T08:44:41.135Z,101099.31
2023-05-19T08:47:15.047Z,101103.56
2023-05-19T08:49:47.419Z,101112.75
2023-05-19T08:52:17.540Z,101107.00
2023-05-19T08:55:07.219Z,101111.66
2023-05-19T08:57:38.493Z,101111.56
2023-05-19T09:00:15.352Z,101110.97
2023-05-19T09:02:55.453Z,101116.03
2023-05-19T09:05:37.036Z,101120.19
2023-05-19T09:08:09.953Z,101115.06
2023-05-19T09:10:40.408Z,101120.34
2023-05-19T09:13:10.909Z,101129.41
2023-05-19T09:15:44.059Z,101127.19
2023-05-19T09:18:18.629Z,101130.41
2023-05-19T09:20:49.223Z,101133.78
2023-05-19T09:23:19.894Z,101131.16
2023-05-19T09:25:51.195Z,101125.19
2023-05-19T09:28:29.253Z,101128.72
2023-05-19T09:31:03.062Z,101132.34
2023-05-19T09:33:35.765Z,101138.13
2023-05-19T09:36:10.099Z,101146.16
2023-05-19T09:38:41.743Z,101156.06
2023-05-19T09:41:15.814Z,101148.06
2023-05-19T09:43:55.631Z,101149.22
2023-05-19T09:46:29.542Z,101154.94
2023-05-19T09:49:00.014Z,101156.06
2023-05-19T09:51:30.718Z,101163.06
2023-05-19T09:54:00.881Z,101167.75
2023-05-19T09:56:36.019Z,101164.81
2023-05-19T09:59:06.520Z,101170.69
2023-05-19T10:01:38.569Z,101172.53
2023-05-19T10:04:09.676Z,101174.75
2023-05-19T10:06:40.529Z,101182.75
2023-05-19T10:09:10.628Z,101184.53
2023-05-19T10:11:41.602Z,101189.34
2023-05-19T10:14:12.746Z,101190.97
2023-05-19T10:16:44.169Z,101191.38
2023-05-19T10:19:15.611Z,101199.97
2023-05-19T10:21:46.118Z,101209.94
2023-05-19T10:24:16.100Z,101207.84
2023-05-19T10:26:53.203Z,101206.00
2023-05-19T10:29:29.016Z,101207.34
2023-05-19T10:32:06.333Z,101216.88
2023-05-19T10:35:13.142Z,101221.44
2023-05-19T10:37:54.782Z,101230.25
2023-05-19T10:40:40.432Z,101230.84
2023-05-19T10:43:35.349Z,101239.88
2023-05-19T10:46:07.515Z,101244.06
2023-05-19T10:48:37.971Z,101249.31
2023-05-19T10:51:13.281Z,101247.75
2023-05-19T10:53:47.858Z,101254.22
2023-05-19T10:56:36.046Z,101254.81
2023-05-19T10:59:06.440Z,101249.81
2023-05-19T11:01:39.433Z,101253.22
2023-05-19T11:04:16.774Z,101260.03
2023-05-19T11:06:52.946Z,101265.66
2023-05-19T11:09:38.008Z,101264.94
2023-05-19T11:12:11.946Z,101270.97
2023-05-19T11:14:42.556Z,101275.06
2023-05-19T11:17:17.071Z,101285.16
2023-05-19T11:19:58.379Z,101283.66
2023-05-19T11:22:29.605Z,101281.03
2023-05-19T11:25:00.003Z,101285.03
2023-05-19T11:27:34.552Z,101290.84
2023-05-19T11:30:09.204Z,101292.91
2023-05-19T11:32:48.467Z,101299.75
2023-05-19T11:35:22.513Z,101289.63
2023-05-19T11:37:56.056Z,101290.38
2023-05-19T11:40:28.187Z,101292.19
2023-05-19T11:42:58.408Z,101286.22
2023-05-19T11:45:34.430Z,101283.00
2023-05-19T11:48:04.968Z,101283.16
2023-05-19T11:50:36.451Z,101281.13
2023-05-19T11:53:06.765Z,101276.63
2023-05-19T11:55:37.950Z,101285.25
2023-05-19T11:58:07.917Z,101275.25
2023-05-19T12:00:41.924Z,101280.78
2023-05-19T12:03:12.043Z,101273.75
2023-05-19T12:05:47.792Z,101275.91
2023-05-19T12:08:21.216Z,101279.97
2023-05-19T12:10:52.058Z,101273.44
2023-05-19T12:13:23.837Z,101273.47
2023-05-19T12:15:54.750Z,101272.75
2023-05-19T12:18:24.766Z,101270.13
2023-05-19T12:20:54.680Z,101262.13
2023-05-19T12:23:26.198Z,101269.91
2023-05-19T12:25:56.285Z,101268.66
2023-05-19T12:28:26.747Z,101270.56
2023-05-19T12:30:59.721Z,101268.72
2023-05-19T12:33:30.122Z,101271.88
2023-05-19T12:36:00.245Z,101269.25
2023-05-19T12:38:30.854Z,101269.41
2023-05-19T12:41:01.363Z,101259.41
2023-05-19T12:43:31.884Z,101254.97
2023-05-19T12:46:12.559Z,101258.16
2023-05-19T12:48:47.001Z,101254.28
2023-05-19T12:51:23.103Z,101249.34
2023-05-19T12:53:53.728Z,101252.78
2023-05-19T12:56:28.134Z,101243.59
2023-05-19T12:58:58.617Z,101241.63
2023-05-19T13:01:30.685Z,101248.75
2023-05-19T13:04:03.997Z,101243.53
2023-05-19T13:06:36.828Z,101241.69
2023-05-19T13:09:08.370Z,101241.22
2023-05-19T13:11:38.776Z,101236.56
2023-05-19T13:14:08.735Z,101233.44
2023-05-19T13:16:39.167Z,101235.25
2023-05-19T13:19:23.894Z,101240.56
2023-05-19T13:21:56.189Z,101230.03
2023-05-19T13:24:26.498Z,101238.69
2023-05-19T13:26:56.977Z,101228.59
2023-05-19T13:29:26.969Z,101224.47
2023-05-19T13:31:57.721Z,101226.31
2023-05-19T13:34:28.976Z,101225.00
2023-05-19T13:36:58.656Z,101210.84
2023-05-19T13:39:29.048Z,101210.75
2023-05-19T13:42:00.568Z,101209.16
2023-05-19T13:44:30.991Z,101196.84
2023-05-19T13:47:00.857Z,101196.63
2023-05-19T13:49:31.239Z,101193.50
2023-05-19T13:52:01.165Z,101192.44
2023-05-19T13:54:31.512Z,101186.53
2023-05-19T13:57:01.915Z,101178.38
2023-05-19T13:59:32.280Z,101177.94
2023-05-19T14:02:03.962Z,101175.88
2023-05-19T14:04:34.576Z,101171.66
2023-05-19T14:07:04.540Z,101171.28
2023-05-19T14:09:35.527Z,101176.81
2023-05-19T14:12:07.133Z,101179.72
2023-05-19T14:14:37.060Z,101166.66
2023-05-19T14:17:07.132Z,101161.72
2023-05-19T14:19:43.264Z,101161.09
2023-05-19T14:22:14.478Z,101157.66
2023-05-19T14:24:44.516Z,101148.00
2023-05-19T14:27:14.816Z,101144.94
2023-05-19T14:29:45.020Z,101137.09
2023-05-19T14:32:15.448Z,101144.94
2023-05-19T14:34:45.502Z,101136.47
2023-05-19T14:37:15.907Z,101129.53
2023-05-19T14:39:45.944Z,101132.91
2023-05-19T14:42:16.317Z,101130.09
2023-05-19T14:44:46.377Z,101126.34
2023-05-19T14:47:16.861Z,101124.25
2023-05-19T14:49:46.973Z,101124.13
2023-05-19T14:52:17.445Z,101113.50
2023-05-19T14:54:47.446Z,101110.03
2023-05-19T14:57:17.847Z,101101.69
2023-05-19T14:59:47.847Z,101098.94
2023-05-19T15:02:18.191Z,101092.50
2023-05-19T15:04:48.246Z,101085.78
2023-05-19T15:07:18.708Z,101084.84
2023-05-19T15:09:48.751Z,101078.81
2023-05-19T15:12:19.157Z,101071.91
2023-05-19T15:14:49.512Z,101064.94
2023-05-19T15:17:19.885Z,101058.47
2023-05-19T15:19:49.936Z,101063.34
2023-05-19T15:22:20.337Z,101064.53
2023-05-19T15:24:50.407Z,101059.88
2023-05-19T15:27:21.947Z,101064.38
2023-05-19T15:29:52.057Z,101044.69
2023-05-19T15:32:22.546Z,101049.53
2023-05-19T15:34:52.656Z,101051.84
2023-05-19T15:37:23.005Z,101044.38
2023-05-19T15:39:53.067Z,101038.13
2023-05-19T15:42:23.512Z,101036.25
2023-05-19T15:44:53.582Z,101035.19
2023-05-19T15:47:23.930Z,101025.50
2023-05-19T15:49:53.958Z,101018.88
2023-05-19T15:52:24.317Z,101015.09
2023-05-19T15:54:56.284Z,101005.22
2023-05-19T15:57:27.024Z,101009.56
2023-05-19T15:59:57.015Z,100997.81
2023-05-19T16:02:27.787Z,100997.47
2023-05-19T16:04:57.855Z,101004.78
2023-05-19T16:07:28.489Z,100995.56
2023-05-19T16:09:58.601Z,100988.66
2023-05-19T16:12:30.584Z,100982.16
2023-05-19T16:15:00.635Z,100991.03
2023-05-19T16:17:31.042Z,100992.19
2023-05-19T16:20:01.820Z,100988.59
2023-05-19T16:22:32.984Z,100981.22
2023-05-19T16:25:02.988Z,100970.00
2023-05-19T16:27:33.384Z,100964.25
2023-05-19T16:30:04.360Z,100963.59
2023-05-19T16:32:35.086Z,100972.19
2023-05-19T16:35:05.234Z,100960.97
2023-05-19T16:37:35.793Z,100961.47
2023-05-19T16:40:06.158Z,100956.09
2023-05-19T16:42:36.520Z,100957.06
2023-05-19T16:45:06.995Z,100968.25
2023-05-19T16:47:37.442Z,100958.16
2023-05-19T16:50:08.042Z,100958.53
2023-05-19T16:52:38.634Z,100956.66
2023-05-19T16:55:10.223Z,100954.16
2023-05-19T16:57:40.483Z,100945.06
2023-05-19T17:00:10.990Z,100937.47
2023-05-19T17:02:44.322Z,100926.81
2023-05-19T17:05:14.536Z,100912.72
2023-05-19T17:07:44.954Z,100910.44
2023-05-19T17:10:15.616Z,100907.50
2023-05-19T17:12:46.111Z,100902.31
2023-05-19T17:15:16.736Z,100907.19
2023-05-19T17:17:47.153Z,100895.63
2023-05-19T17:20:17.575Z,100888.75
2023-05-19T17:22:47.931Z,100886.47
2023-05-19T17:25:18.200Z,100883.31
2023-05-19T17:27:48.580Z,100882.69
2023-05-19T17:30:18.384Z,100882.03
2023-05-19T17:32:49.251Z,100881.50
2023-05-19T17:35:19.434Z,100872.81
2023-05-19T17:37:49.876Z,100870.34
2023-05-19T17:40:19.954Z,100872.97
2023-05-19T17:42:50.377Z,100870.06
2023-05-19T17:45:20.490Z,100871.88
2023-05-19T17:47:50.837Z,100870.13
2023-05-19T17:50:20.835Z,100851.53
2023-05-19T17:52:51.425Z,100858.41
2023-05-19T17:55:22.071Z,100846.13
2023-05-19T17:57:52.685Z,100844.28
2023-05-19T18:00:23.256Z,100829.28
2023-05-19T18:02:54.117Z,100834.06
2023-05-19T18:05:27.739Z,100835.34
2023-05-19T18:07:58.857Z,100826.38
2023-05-19T18:10:29.408Z,100831.69
2023-05-19T18:12:59.751Z,100833.69
2023-05-19T18:15:29.573Z,100832.09
2023-05-19T18:18:00.170Z,100834.19
2023-05-19T18:20:32.203Z,100835.78
2023-05-19T18:23:03.793Z,100834.50
2023-05-19T18:25:33.835Z,100838.03
2023-05-19T18:28:03.564Z,100833.75
2023-05-19T18:30:34.275Z,100829.63
2023-05-19T18:33:05.032Z,100839.28
2023-05-19T18:35:36.117Z,100838.47
2023-05-19T18:38:06.158Z,100827.38
2023-05-19T18:40:36.707Z,100824.03
2023-05-19T18:43:06.821Z,100826.75
2023-05-19T18:45:38.853Z,100831.31
2023-05-19T18:48:09.239Z,100832.91
2023-05-19T18:50:39.652Z,100844.16
2023-05-19T18:53:09.645Z,100845.63
2023-05-19T18:55:40.213Z,100845.00
2023-05-19T18:58:10.317Z,100842.06
2023-05-19T19:00:40.792Z,100845.31
2023-05-19T19:03:12.778Z,100837.63
2023-05-19T19:05:43.364Z,100836.69
2023-05-19T19:08:13.922Z,100831.28
2023-05-19T19:10:44.272Z,100830.34
2023-05-19T19:13:14.636Z,100838.78
2023-05-19T19:15:44.673Z,100834.16
2023-05-19T19:18:15.158Z,100840.84
2023-05-19T19:20:46.533Z,100837.13
2023-05-19T19:23:17.551Z,100837.84
2023-05-19T19:25:48.608Z,100845.50
2023-05-19T19:28:18.973Z,100844.16
2023-05-19T19:30:48.841Z,100836.88
2023-05-19T19:33:19.244Z,100846.63
2023-05-19T19:35:49.503Z,100848.88
2023-05-19T19:38:19.907Z,100839.81
2023-05-19T19:40:52.164Z,100850.16
2023-05-19T19:43:22.552Z,100843.75
2023-05-19T19:46:01.799Z,100835.63
2023-05-19T19:48:32.402Z,100835.09
2023-05-19T19:51:02.405Z,100832.59
2023-05-19T19:53:34.759Z,100837.84
2023-05-19T19:56:06.160Z,100837.03
2023-05-19T19:58:36.547Z,100837.41
2023-05-19T20:01:07.269Z,100826.84
2023-05-19T20:03:37.871Z,100829.13
2023-05-19T20:06:08.774Z,100832.34
2023-05-19T20:08:39.167Z,100829.09
2023-05-19T20:11:08.924Z,100836.28
2023-05-19T20:13:39.280Z,100841.78
2023-05-19T20:16:09.373Z,100852.22
2023-05-19T20:18:40.609Z,100849.84
2023-05-19T20:21:10.574Z,100854.13
2023-05-19T20:23:41.779Z,100853.63
2023-05-19T20:26:13.194Z,100873.97
2023-05-19T20:28:44.137Z,100875.25
2023-05-19T20:31:14.088Z,100876.75
2023-05-19T20:33:44.509Z,100868.50
2023-05-19T20:36:14.602Z,100871.16
2023-05-19T20:38:44.961Z,100870.16
2023-05-19T20:41:15.141Z,100869.50
2023-05-19T20:43:45.628Z,100870.91
2023-05-19T20:46:15.686Z,100873.72
2023-05-19T20:48:46.102Z,100867.47
2023-05-19T20:51:16.064Z,100870.94
2023-05-19T20:53:46.617Z,100865.66
2023-05-19T20:56:16.548Z,100869.44
2023-05-19T20:58:47.125Z,100879.09
2023-05-19T21:01:17.311Z,100882.19
2023-05-19T21:03:47.794Z,100878.06
2023-05-19T21:06:17.738Z,100880.34
2023-05-19T21:08:48.048Z,100884.31
2023-05-19T21:11:18.008Z,100880.34
2023-05-19T21:13:48.378Z,100874.38
2023-05-19T21:16:18.231Z,100879.47
2023-05-19T21:18:48.809Z,100874.84
2023-05-19T21:21:18.893Z,100875.66
2023-05-19T21:23:49.553Z,100875.69
2023-05-19T21:26:20.000Z,100876.13
2023-05-19T21:28:50.681Z,100871.69
2023-05-19T21:31:21.260Z,100868.19
2023-05-19T21:33:52.176Z,100868.41
2023-05-19T21:36:22.589Z,100875.06
2023-05-19T21:38:53.647Z,100876.78
2023-05-19T21:41:24.067Z,100875.78
2023-05-19T21:43:54.657Z,100875.22
2023-05-19T21:46:25.267Z,100877.63
2023-05-19T21:48:56.289Z,100882.53
2023-05-19T21:51:26.783Z,100882.91
2023-05-19T21:53:57.900Z,100883.38
2023-05-19T21:56:28.698Z,100890.50
2023-05-19T21:58:59.582Z,100886.91
2023-05-19T22:01:30.154Z,100892.91
2023-05-19T22:04:04.136Z,100899.69
2023-05-19T22:06:34.998Z,100899.91
2023-05-19T22:09:08.636Z,100905.63
2023-05-19T22:11:39.347Z,100914.84
2023-05-19T22:14:11.840Z,100908.13
2023-05-19T22:16:42.784Z,100917.69
2023-05-19T22:19:14.125Z,100923.88
2023-05-19T22:21:45.406Z,100913.81
2023-05-19T22:24:17.543Z,100919.56
2023-05-19T22:26:48.715Z,100916.22
2023-05-19T22:29:20.796Z,100909.53
2023-05-19T22:31:51.546Z,100923.91
2023-05-19T22:34:24.001Z,100922.91
2023-05-19T22:36:54.816Z,100926.78
2023-05-19T22:39:25.995Z,100923.88
2023-05-19T22:41:56.980Z,100926.78
2023-05-19T22:44:29.351Z,100932.50
2023-05-19T22:46:59.920Z,100925.84
2023-05-19T22:49:32.783Z,100913.75
2023-05-19T22:52:04.952Z,100928.06
2023-05-19T22:54:36.201Z,100917.53
2023-05-19T22:57:07.512Z,100926.44
2023-05-19T22:59:41.458Z,100924.94
2023-05-19T23:02:13.139Z,100920.81
2023-05-19T23:04:44.683Z,100927.22
2023-05-19T23:07:15.291Z,100922.50
2023-05-19T23:09:46.205Z,100913.31
2023-05-19T23:12:17.198Z,100910.91
2023-05-19T23:14:48.977Z,100925.34
2023-05-19T23:17:19.862Z,100919.56
2023-05-19T23:19:51.529Z,100920.06
2023-05-19T23:22:22.559Z,100924.88
2023-05-19T23:24:53.649Z,100918.53
2023-05-19T23:27:24.550Z,100924.09
2023-05-19T23:29:55.946Z,100919.94
2023-05-19T23:32:30.101Z,100922.53
2023-05-19T23:35:18.429Z,100924.91
2023-05-19T23:37:49.395Z,100918.19
2023-05-19T23:40:22.971Z,100921.31
2023-05-19T23:42:56.067Z,100922.03
2023-05-19T23:45:28.458Z,100922.56
2023-05-19T23:47:58.855Z,100927.81
2023-05-19T23:50:29.550Z,100927.81
2023-05-19T23:52:59.614Z,100921.53
2023-05-19T23:55:30.127Z,100925.63
2023-05-19T23:58:00.159Z,100933.34
